Lafontaine, Kansas
Current Conditions -  °F | °C
As of 2:52 PM on Monday 24 Nov 2014 (Local Time) from KCNU Reporting Station
Clear Clear  
Wind Chill: 40°   Ceiling: Unl
Heat Index: 48°   Visibility: 10mi
Dew Point: 23°   Wind: 23mph
Humidity: 37%   Direction: 300°WNW
Pressure: 29.89"   Gusts: 32mph
Location:  37.5252°N, 95.8316°W
Report Text: KCNU 242052Z AUTO 30020G28KT 10SM CLR 09/M05 A2989 RMK AO2 PK WND 28031/1955 SLP122 T00891050 53016
Loading
Personal Weather Stations






























Interactive Weather Map New forecast layout! Learn more

10-Day Weather Forecast

Advertisements
Track Severe Weather on mobile